sensor_id;sensor_type;location;lat;lon;timestamp;pressure;altitude;pressure_sealevel;temperature;humidity
38612;BME280;24368;52.156;20.788;2022-12-28T00:02:45;101186.73;;;3.02;100.00
38612;BME280;24368;52.156;20.788;2022-12-28T00:07:47;101185.46;;;3.02;100.00
38612;BME280;24368;52.156;20.788;2022-12-28T00:12:48;101180.54;;;3.07;100.00
38612;BME280;24368;52.156;20.788;2022-12-28T00:17:49;101185.08;;;3.03;100.00
38612;BME280;24368;52.156;20.788;2022-12-28T00:22:50;101183.73;;;2.93;100.00
38612;BME280;24368;52.156;20.788;2022-12-28T00:27:51;101182.51;;;2.96;100.00
38612;BME280;24368;52.156;20.788;2022-12-28T00:32:52;101182.10;;;3.00;100.00
38612;BME280;24368;52.156;20.788;2022-12-28T00:37:53;101186.79;;;3.00;100.00
38612;BME280;24368;52.156;20.788;2022-12-28T00:42:54;101186.17;;;2.92;100.00
38612;BME280;24368;52.156;20.788;2022-12-28T00:47:55;101190.52;;;2.93;100.00
38612;BME280;24368;52.156;20.788;2022-12-28T00:52:56;101195.61;;;2.89;100.00
38612;BME280;24368;52.156;20.788;2022-12-28T00:57:58;101196.58;;;2.90;100.00
38612;BME280;24368;52.156;20.788;2022-12-28T01:02:59;101195.20;;;2.87;100.00
38612;BME280;24368;52.156;20.788;2022-12-28T01:08:00;101193.30;;;2.83;100.00
38612;BME280;24368;52.156;20.788;2022-12-28T01:13:02;101192.71;;;2.75;100.00
38612;BME280;24368;52.156;20.788;2022-12-28T01:18:03;101188.46;;;2.73;100.00
38612;BME280;24368;52.156;20.788;2022-12-28T01:23:04;101183.83;;;2.68;100.00
38612;BME280;24368;52.156;20.788;2022-12-28T01:28:05;101192.10;;;2.67;100.00
38612;BME280;24368;52.156;20.788;2022-12-28T01:33:06;101186.02;;;2.66;100.00
38612;BME280;24368;52.156;20.788;2022-12-28T01:38:07;101183.20;;;2.67;100.00
38612;BME280;24368;52.156;20.788;2022-12-28T01:43:12;101179.36;;;2.61;100.00
38612;BME280;24368;52.156;20.788;2022-12-28T01:48:20;101171.92;;;2.60;100.00
38612;BME280;24368;52.156;20.788;2022-12-28T01:53:23;101168.12;;;2.60;100.00
38612;BME280;24368;52.156;20.788;2022-12-28T01:58:27;101168.94;;;2.54;100.00
38612;BME280;24368;52.156;20.788;2022-12-28T02:03:31;101173.98;;;2.45;100.00
38612;BME280;24368;52.156;20.788;2022-12-28T02:13:36;101175.66;;;2.30;100.00
38612;BME280;24368;52.156;20.788;2022-12-28T02:18:39;101166.87;;;2.11;100.00
38612;BME280;24368;52.156;20.788;2022-12-28T02:45:41;101149.65;;;1.81;100.00
38612;BME280;24368;52.156;20.788;2022-12-28T02:51:13;101145.91;;;1.73;100.00
38612;BME280;24368;52.156;20.788;2022-12-28T02:57:04;101139.35;;;1.72;100.00
38612;BME280;24368;52.156;20.788;2022-12-28T03:07:58;101146.20;;;1.46;100.00
38612;BME280;24368;52.156;20.788;2022-12-28T03:14:02;101150.91;;;1.39;100.00
38612;BME280;24368;52.156;20.788;2022-12-28T03:19:04;101151.86;;;1.41;100.00
38612;BME280;24368;52.156;20.788;2022-12-28T03:24:28;101150.90;;;1.36;100.00
38612;BME280;24368;52.156;20.788;2022-12-28T03:29:57;101145.95;;;1.27;100.00
38612;BME280;24368;52.156;20.788;2022-12-28T03:35:21;101145.39;;;1.24;100.00
38612;BME280;24368;52.156;20.788;2022-12-28T03:40:37;101138.55;;;1.22;100.00
38612;BME280;24368;52.156;20.788;2022-12-28T03:50:47;101118.84;;;1.06;100.00
38612;BME280;24368;52.156;20.788;2022-12-28T03:55:49;101105.23;;;1.00;100.00
38612;BME280;24368;52.156;20.788;2022-12-28T04:00:50;101095.89;;;1.00;100.00
38612;BME280;24368;52.156;20.788;2022-12-28T04:05:51;101082.86;;;0.97;100.00
38612;BME280;24368;52.156;20.788;2022-12-28T04:10:53;101081.66;;;0.86;100.00
38612;BME280;24368;52.156;20.788;2022-12-28T04:15:59;101081.33;;;0.82;100.00
38612;BME280;24368;52.156;20.788;2022-12-28T04:21:02;101078.92;;;0.78;100.00
38612;BME280;24368;52.156;20.788;2022-12-28T04:26:06;101085.17;;;0.81;100.00
38612;BME280;24368;52.156;20.788;2022-12-28T04:31:10;101078.65;;;0.76;100.00
38612;BME280;24368;52.156;20.788;2022-12-28T04:36:14;101077.01;;;0.67;100.00
38612;BME280;24368;52.156;20.788;2022-12-28T04:41:15;101083.11;;;0.62;100.00
38612;BME280;24368;52.156;20.788;2022-12-28T04:46:16;101084.66;;;0.63;100.00
38612;BME280;24368;52.156;20.788;2022-12-28T04:51:22;101085.54;;;0.62;100.00
38612;BME280;24368;52.156;20.788;2022-12-28T04:56:25;101073.60;;;0.58;100.00
38612;BME280;24368;52.156;20.788;2022-12-28T05:01:26;101071.59;;;0.53;100.00
38612;BME280;24368;52.156;20.788;2022-12-28T05:06:28;101066.15;;;0.51;100.00
38612;BME280;24368;52.156;20.788;2022-12-28T05:11:29;101067.02;;;0.51;100.00
38612;BME280;24368;52.156;20.788;2022-12-28T05:16:31;101060.91;;;0.48;100.00
38612;BME280;24368;52.156;20.788;2022-12-28T05:21:32;101068.21;;;0.44;100.00
38612;BME280;24368;52.156;20.788;2022-12-28T05:26:33;101064.86;;;0.41;100.00
38612;BME280;24368;52.156;20.788;2022-12-28T05:31:35;101065.43;;;0.41;100.00
38612;BME280;24368;52.156;20.788;2022-12-28T05:36:36;101066.09;;;0.41;100.00
38612;BME280;24368;52.156;20.788;2022-12-28T05:41:39;101052.85;;;0.35;100.00
38612;BME280;24368;52.156;20.788;2022-12-28T05:46:40;101052.14;;;0.32;100.00
38612;BME280;24368;52.156;20.788;2022-12-28T05:51:41;101045.69;;;0.25;100.00
38612;BME280;24368;52.156;20.788;2022-12-28T05:56:43;101043.23;;;0.22;100.00
38612;BME280;24368;52.156;20.788;2022-12-28T06:01:44;101044.95;;;0.26;100.00
38612;BME280;24368;52.156;20.788;2022-12-28T06:06:47;101043.23;;;0.22;100.00
38612;BME280;24368;52.156;20.788;2022-12-28T06:11:48;101035.62;;;0.14;100.00
38612;BME280;24368;52.156;20.788;2022-12-28T06:16:49;101037.11;;;0.15;100.00
38612;BME280;24368;52.156;20.788;2022-12-28T06:21:51;101036.51;;;0.21;100.00
38612;BME280;24368;52.156;20.788;2022-12-28T06:26:52;101036.79;;;0.22;100.00
38612;BME280;24368;52.156;20.788;2022-12-28T06:31:53;101026.61;;;0.21;100.00
38612;BME280;24368;52.156;20.788;2022-12-28T06:36:56;101026.92;;;0.18;100.00
38612;BME280;24368;52.156;20.788;2022-12-28T06:41:58;101026.16;;;0.20;100.00
38612;BME280;24368;52.156;20.788;2022-12-28T06:46:59;101027.86;;;0.17;100.00
38612;BME280;24368;52.156;20.788;2022-12-28T06:52:00;101035.70;;;0.16;100.00
38612;BME280;24368;52.156;20.788;2022-12-28T06:57:01;101026.66;;;0.17;100.00
38612;BME280;24368;52.156;20.788;2022-12-28T07:02:02;101011.70;;;0.18;100.00
38612;BME280;24368;52.156;20.788;2022-12-28T07:07:03;101011.13;;;0.12;100.00
38612;BME280;24368;52.156;20.788;2022-12-28T07:12:04;101000.20;;;0.08;100.00
38612;BME280;24368;52.156;20.788;2022-12-28T07:17:05;100997.66;;;0.14;100.00
38612;BME280;24368;52.156;20.788;2022-12-28T07:22:06;100997.22;;;0.24;100.00
38612;BME280;24368;52.156;20.788;2022-12-28T07:27:08;100988.06;;;0.27;100.00
38612;BME280;24368;52.156;20.788;2022-12-28T07:32:09;100991.46;;;0.29;100.00
38612;BME280;24368;52.156;20.788;2022-12-28T07:37:10;100985.60;;;0.32;100.00
38612;BME280;24368;52.156;20.788;2022-12-28T07:42:11;100983.92;;;0.41;100.00
38612;BME280;24368;52.156;20.788;2022-12-28T07:47:13;100980.02;;;0.50;100.00
38612;BME280;24368;52.156;20.788;2022-12-28T07:52:14;100979.75;;;0.52;100.00
38612;BME280;24368;52.156;20.788;2022-12-28T07:57:15;100978.36;;;0.52;100.00
38612;BME280;24368;52.156;20.788;2022-12-28T08:02:16;100987.02;;;0.60;100.00
38612;BME280;24368;52.156;20.788;2022-12-28T08:07:17;100990.19;;;0.73;100.00
38612;BME280;24368;52.156;20.788;2022-12-28T08:12:18;100981.52;;;0.87;100.00
38612;BME280;24368;52.156;20.788;2022-12-28T08:17:19;100970.02;;;0.88;100.00
38612;BME280;24368;52.156;20.788;2022-12-28T08:22:20;100966.45;;;0.93;100.00
38612;BME280;24368;52.156;20.788;2022-12-28T08:27:21;100964.95;;;1.06;100.00
38612;BME280;24368;52.156;20.788;2022-12-28T08:32:22;100965.91;;;1.21;100.00
38612;BME280;24368;52.156;20.788;2022-12-28T08:37:23;100964.73;;;1.40;100.00
38612;BME280;24368;52.156;20.788;2022-12-28T08:42:24;100970.86;;;1.59;100.00
38612;BME280;24368;52.156;20.788;2022-12-28T08:47:25;100970.44;;;1.77;100.00
38612;BME280;24368;52.156;20.788;2022-12-28T08:52:26;100964.51;;;2.02;100.00
38612;BME280;24368;52.156;20.788;2022-12-28T08:57:27;100963.02;;;2.23;100.00
38612;BME280;24368;52.156;20.788;2022-12-28T09:02:28;100959.33;;;2.24;100.00
38612;BME280;24368;52.156;20.788;2022-12-28T09:07:29;100967.73;;;2.32;100.00
38612;BME280;24368;52.156;20.788;2022-12-28T09:12:30;100967.43;;;2.47;100.00
38612;BME280;24368;52.156;20.788;2022-12-28T09:17:31;100963.33;;;2.55;100.00
38612;BME280;24368;52.156;20.788;2022-12-28T09:22:32;100954.33;;;2.60;100.00
38612;BME280;24368;52.156;20.788;2022-12-28T09:27:33;100954.20;;;2.74;100.00
38612;BME280;24368;52.156;20.788;2022-12-28T09:32:34;100945.00;;;2.85;100.00
38612;BME280;24368;52.156;20.788;2022-12-28T09:37:35;100939.05;;;2.98;100.00
38612;BME280;24368;52.156;20.788;2022-12-28T09:42:40;100923.70;;;3.01;100.00
38612;BME280;24368;52.156;20.788;2022-12-28T09:47:45;100913.80;;;3.04;100.00
38612;BME280;24368;52.156;20.788;2022-12-28T09:58:16;100892.48;;;3.26;100.00
38612;BME280;24368;52.156;20.788;2022-12-28T10:03:23;100880.36;;;3.30;100.00
38612;BME280;24368;52.156;20.788;2022-12-28T10:08:26;100870.97;;;3.27;100.00
38612;BME280;24368;52.156;20.788;2022-12-28T10:13:35;100860.77;;;3.26;100.00
38612;BME280;24368;52.156;20.788;2022-12-28T10:18:37;100849.41;;;3.24;100.00
38612;BME280;24368;52.156;20.788;2022-12-28T10:23:39;100844.89;;;3.29;100.00
38612;BME280;24368;52.156;20.788;2022-12-28T10:28:47;100841.27;;;3.34;100.00
38612;BME280;24368;52.156;20.788;2022-12-28T10:33:49;100829.23;;;3.34;99.99
38612;BME280;24368;52.156;20.788;2022-12-28T10:38:54;100828.25;;;3.39;99.40
38612;BME280;24368;52.156;20.788;2022-12-28T10:43:57;100835.27;;;3.43;98.91
38612;BME280;24368;52.156;20.788;2022-12-28T10:48:59;100833.06;;;3.48;97.89
38612;BME280;24368;52.156;20.788;2022-12-28T10:54:22;100820.00;;;3.48;97.80
38612;BME280;24368;52.156;20.788;2022-12-28T10:59:26;100806.20;;;3.43;98.21
38612;BME280;24368;52.156;20.788;2022-12-28T11:04:28;100784.09;;;3.35;98.09
38612;BME280;24368;52.156;20.788;2022-12-28T11:09:31;100777.69;;;3.26;98.88
38612;BME280;24368;52.156;20.788;2022-12-28T11:14:35;100770.84;;;3.24;99.82
38612;BME280;24368;52.156;20.788;2022-12-28T11:19:37;100752.89;;;3.19;99.97
38612;BME280;24368;52.156;20.788;2022-12-28T11:24:39;100749.77;;;3.15;100.00
38612;BME280;24368;52.156;20.788;2022-12-28T11:29:44;100753.81;;;3.15;100.00
38612;BME280;24368;52.156;20.788;2022-12-28T11:34:46;100762.10;;;3.22;100.00
38612;BME280;24368;52.156;20.788;2022-12-28T11:39:50;100750.35;;;3.34;99.99
38612;BME280;24368;52.156;20.788;2022-12-28T11:44:52;100740.77;;;3.47;99.90
38612;BME280;24368;52.156;20.788;2022-12-28T11:49:53;100727.20;;;3.58;99.48
38612;BME280;24368;52.156;20.788;2022-12-28T11:55:34;100725.83;;;3.74;98.47
38612;BME280;24368;52.156;20.788;2022-12-28T12:10:39;100680.55;;;3.57;99.06
38612;BME280;24368;52.156;20.788;2022-12-28T12:15:43;100668.55;;;3.60;98.53
38612;BME280;24368;52.156;20.788;2022-12-28T12:20:49;100664.69;;;3.60;97.99
38612;BME280;24368;52.156;20.788;2022-12-28T12:25:52;100653.14;;;3.69;97.01
38612;BME280;24368;52.156;20.788;2022-12-28T12:30:55;100639.84;;;3.70;96.97
38612;BME280;24368;52.156;20.788;2022-12-28T13:08:02;100594.02;;;3.66;96.89
38612;BME280;24368;52.156;20.788;2022-12-28T13:13:04;100569.89;;;3.70;96.77
38612;BME280;24368;52.156;20.788;2022-12-28T13:18:15;100572.10;;;3.77;97.20
38612;BME280;24368;52.156;20.788;2022-12-28T13:23:22;100571.15;;;3.75;96.74
38612;BME280;24368;52.156;20.788;2022-12-28T13:28:34;100571.08;;;3.66;97.98
38612;BME280;24368;52.156;20.788;2022-12-28T13:33:37;100557.37;;;3.55;98.37
38612;BME280;24368;52.156;20.788;2022-12-28T13:38:38;100544.91;;;3.51;99.34
38612;BME280;24368;52.156;20.788;2022-12-28T13:49:08;100542.29;;;3.49;98.90
38612;BME280;24368;52.156;20.788;2022-12-28T13:54:11;100536.30;;;3.50;99.37
38612;BME280;24368;52.156;20.788;2022-12-28T13:59:15;100531.52;;;3.53;98.98
38612;BME280;24368;52.156;20.788;2022-12-28T14:04:22;100521.03;;;3.54;99.03
38612;BME280;24368;52.156;20.788;2022-12-28T14:09:25;100515.81;;;3.51;99.12
38612;BME280;24368;52.156;20.788;2022-12-28T14:14:27;100516.83;;;3.47;99.41
38612;BME280;24368;52.156;20.788;2022-12-28T14:19:29;100506.52;;;3.49;99.30
38612;BME280;24368;52.156;20.788;2022-12-28T14:24:30;100504.86;;;3.53;98.93
38612;BME280;24368;52.156;20.788;2022-12-28T14:29:33;100500.78;;;3.54;98.51
38612;BME280;24368;52.156;20.788;2022-12-28T14:34:35;100492.98;;;3.54;98.63
38612;BME280;24368;52.156;20.788;2022-12-28T14:39:41;100497.73;;;3.56;98.78
38612;BME280;24368;52.156;20.788;2022-12-28T14:44:44;100497.37;;;3.58;98.88
38612;BME280;24368;52.156;20.788;2022-12-28T14:49:45;100490.09;;;3.63;98.60
38612;BME280;24368;52.156;20.788;2022-12-28T14:54:49;100479.27;;;3.63;98.41
38612;BME280;24368;52.156;20.788;2022-12-28T14:59:58;100469.06;;;3.60;98.82
38612;BME280;24368;52.156;20.788;2022-12-28T15:05:01;100460.02;;;3.59;98.79
38612;BME280;24368;52.156;20.788;2022-12-28T15:10:03;100467.13;;;3.62;98.80
38612;BME280;24368;52.156;20.788;2022-12-28T15:15:05;100468.41;;;3.69;98.58
38612;BME280;24368;52.156;20.788;2022-12-28T15:20:07;100468.44;;;3.71;98.59
38612;BME280;24368;52.156;20.788;2022-12-28T15:25:08;100458.75;;;3.70;98.44
38612;BME280;24368;52.156;20.788;2022-12-28T15:30:10;100451.15;;;3.66;98.95
38612;BME280;24368;52.156;20.788;2022-12-28T15:35:12;100447.50;;;3.69;98.79
38612;BME280;24368;52.156;20.788;2022-12-28T15:40:14;100450.83;;;3.74;99.00
38612;BME280;24368;52.156;20.788;2022-12-28T15:45:15;100455.85;;;3.75;98.85
38612;BME280;24368;52.156;20.788;2022-12-28T15:50:17;100459.73;;;3.76;98.77
38612;BME280;24368;52.156;20.788;2022-12-28T15:55:18;100454.82;;;3.74;99.25
38612;BME280;24368;52.156;20.788;2022-12-28T16:00:19;100453.44;;;3.76;98.97
38612;BME280;24368;52.156;20.788;2022-12-28T16:05:21;100444.01;;;3.81;99.14
38612;BME280;24368;52.156;20.788;2022-12-28T16:10:22;100438.27;;;3.84;98.91
38612;BME280;24368;52.156;20.788;2022-12-28T16:15:23;100445.32;;;3.85;98.31
38612;BME280;24368;52.156;20.788;2022-12-28T16:20:24;100432.14;;;3.87;98.07
38612;BME280;24368;52.156;20.788;2022-12-28T16:25:25;100428.45;;;3.92;97.74
38612;BME280;24368;52.156;20.788;2022-12-28T16:30:26;100426.99;;;3.95;97.27
38612;BME280;24368;52.156;20.788;2022-12-28T16:35:28;100429.70;;;3.92;97.60
38612;BME280;24368;52.156;20.788;2022-12-28T16:40:29;100429.58;;;3.93;97.47
38612;BME280;24368;52.156;20.788;2022-12-28T16:45:39;100423.50;;;3.98;97.30
38612;BME280;24368;52.156;20.788;2022-12-28T16:50:41;100430.05;;;4.01;97.07
38612;BME280;24368;52.156;20.788;2022-12-28T16:55:42;100432.77;;;4.02;97.04
38612;BME280;24368;52.156;20.788;2022-12-28T17:00:43;100425.35;;;4.04;96.67
38612;BME280;24368;52.156;20.788;2022-12-28T17:05:48;100419.42;;;4.06;96.96
38612;BME280;24368;52.156;20.788;2022-12-28T17:10:50;100417.19;;;4.06;97.08
38612;BME280;24368;52.156;20.788;2022-12-28T17:15:51;100409.74;;;4.07;96.52
38612;BME280;24368;52.156;20.788;2022-12-28T17:20:53;100410.85;;;4.09;96.48
38612;BME280;24368;52.156;20.788;2022-12-28T17:25:54;100411.52;;;4.09;96.26
38612;BME280;24368;52.156;20.788;2022-12-28T17:31:12;100410.30;;;4.19;95.75
38612;BME280;24368;52.156;20.788;2022-12-28T17:36:14;100411.91;;;4.30;94.15
38612;BME280;24368;52.156;20.788;2022-12-28T17:41:19;100402.73;;;4.29;94.26
38612;BME280;24368;52.156;20.788;2022-12-28T17:46:21;100397.00;;;4.27;94.59
38612;BME280;24368;52.156;20.788;2022-12-28T17:51:24;100395.98;;;4.33;93.74
38612;BME280;24368;52.156;20.788;2022-12-28T17:56:27;100386.67;;;4.29;94.11
38612;BME280;24368;52.156;20.788;2022-12-28T18:01:28;100388.06;;;4.27;94.60
38612;BME280;24368;52.156;20.788;2022-12-28T18:06:29;100394.23;;;4.24;95.27
38612;BME280;24368;52.156;20.788;2022-12-28T18:11:31;100387.55;;;4.32;95.15
38612;BME280;24368;52.156;20.788;2022-12-28T18:16:32;100386.33;;;4.39;94.66
38612;BME280;24368;52.156;20.788;2022-12-28T18:21:33;100393.29;;;4.46;94.29
38612;BME280;24368;52.156;20.788;2022-12-28T18:26:34;100389.99;;;4.46;94.54
38612;BME280;24368;52.156;20.788;2022-12-28T18:31:35;100380.45;;;4.45;94.74
38612;BME280;24368;52.156;20.788;2022-12-28T18:36:38;100374.83;;;4.48;94.97
38612;BME280;24368;52.156;20.788;2022-12-28T18:41:39;100375.75;;;4.50;95.00
38612;BME280;24368;52.156;20.788;2022-12-28T18:46:40;100370.33;;;4.50;95.21
38612;BME280;24368;52.156;20.788;2022-12-28T18:51:41;100368.15;;;4.56;94.95
38612;BME280;24368;52.156;20.788;2022-12-28T18:56:42;100371.02;;;4.59;95.27
38612;BME280;24368;52.156;20.788;2022-12-28T19:01:43;100365.02;;;4.64;94.94
38612;BME280;24368;52.156;20.788;2022-12-28T19:06:45;100355.22;;;4.65;95.07
38612;BME280;24368;52.156;20.788;2022-12-28T19:11:46;100359.23;;;4.67;95.20
38612;BME280;24368;52.156;20.788;2022-12-28T19:16:47;100357.18;;;4.67;95.44
38612;BME280;24368;52.156;20.788;2022-12-28T19:21:48;100358.59;;;4.71;95.32
38612;BME280;24368;52.156;20.788;2022-12-28T19:26:51;100355.41;;;4.72;95.30
38612;BME280;24368;52.156;20.788;2022-12-28T19:31:54;100351.98;;;4.69;95.36
38612;BME280;24368;52.156;20.788;2022-12-28T19:36:55;100352.62;;;4.60;96.09
38612;BME280;24368;52.156;20.788;2022-12-28T19:41:56;100350.35;;;4.62;96.04
38612;BME280;24368;52.156;20.788;2022-12-28T19:46:58;100342.33;;;4.65;96.20
38612;BME280;24368;52.156;20.788;2022-12-28T19:52:00;100337.78;;;4.56;96.80
38612;BME280;24368;52.156;20.788;2022-12-28T19:57:02;100336.17;;;4.54;97.17
38612;BME280;24368;52.156;20.788;2022-12-28T20:02:03;100334.09;;;4.58;97.49
38612;BME280;24368;52.156;20.788;2022-12-28T20:07:05;100324.61;;;4.61;97.92
38612;BME280;24368;52.156;20.788;2022-12-28T20:12:06;100326.18;;;4.57;98.09
38612;BME280;24368;52.156;20.788;2022-12-28T20:17:07;100317.42;;;4.55;98.18
38612;BME280;24368;52.156;20.788;2022-12-28T20:22:08;100322.27;;;4.55;98.17
38612;BME280;24368;52.156;20.788;2022-12-28T20:27:09;100323.05;;;4.63;98.25
38612;BME280;24368;52.156;20.788;2022-12-28T20:32:10;100327.64;;;4.60;98.85
38612;BME280;24368;52.156;20.788;2022-12-28T20:37:11;100336.14;;;4.61;99.21
38612;BME280;24368;52.156;20.788;2022-12-28T20:42:13;100347.59;;;4.67;98.91
38612;BME280;24368;52.156;20.788;2022-12-28T20:47:38;100350.36;;;4.70;99.02
38612;BME280;24368;52.156;20.788;2022-12-28T20:52:41;100347.09;;;4.66;99.37
38612;BME280;24368;52.156;20.788;2022-12-28T20:57:42;100343.70;;;4.70;99.29
38612;BME280;24368;52.156;20.788;2022-12-28T21:02:43;100340.39;;;4.77;99.11
38612;BME280;24368;52.156;20.788;2022-12-28T21:07:44;100340.21;;;4.83;98.68
38612;BME280;24368;52.156;20.788;2022-12-28T21:12:45;100322.16;;;4.82;98.52
38612;BME280;24368;52.156;20.788;2022-12-28T21:17:46;100324.53;;;4.83;98.70
38612;BME280;24368;52.156;20.788;2022-12-28T21:22:47;100322.54;;;4.84;98.49
38612;BME280;24368;52.156;20.788;2022-12-28T21:27:50;100317.13;;;4.80;98.86
38612;BME280;24368;52.156;20.788;2022-12-28T21:32:51;100307.70;;;4.78;99.14
38612;BME280;24368;52.156;20.788;2022-12-28T21:37:53;100303.35;;;4.77;99.02
38612;BME280;24368;52.156;20.788;2022-12-28T21:42:54;100294.51;;;4.79;99.16
38612;BME280;24368;52.156;20.788;2022-12-28T21:47:55;100296.65;;;4.78;99.26
38612;BME280;24368;52.156;20.788;2022-12-28T21:52:56;100305.45;;;4.75;99.09
38612;BME280;24368;52.156;20.788;2022-12-28T21:57:57;100306.12;;;4.75;99.28
38612;BME280;24368;52.156;20.788;2022-12-28T22:02:58;100307.39;;;4.84;98.67
38612;BME280;24368;52.156;20.788;2022-12-28T22:08:19;100299.54;;;4.81;98.53
38612;BME280;24368;52.156;20.788;2022-12-28T22:13:38;100294.80;;;4.79;98.98
38612;BME280;24368;52.156;20.788;2022-12-28T22:18:39;100288.14;;;4.84;98.51
38612;BME280;24368;52.156;20.788;2022-12-28T22:23:40;100289.14;;;4.83;98.75
38612;BME280;24368;52.156;20.788;2022-12-28T22:28:41;100297.50;;;4.81;99.20
38612;BME280;24368;52.156;20.788;2022-12-28T22:33:42;100294.35;;;4.85;98.83
38612;BME280;24368;52.156;20.788;2022-12-28T22:38:44;100294.90;;;4.89;98.40
38612;BME280;24368;52.156;20.788;2022-12-28T22:43:49;100287.85;;;4.90;98.26
38612;BME280;24368;52.156;20.788;2022-12-28T22:48:51;100291.24;;;4.89;98.01
38612;BME280;24368;52.156;20.788;2022-12-28T22:53:52;100280.35;;;4.90;97.98
38612;BME280;24368;52.156;20.788;2022-12-28T22:58:53;100272.73;;;4.91;98.03
38612;BME280;24368;52.156;20.788;2022-12-28T23:03:54;100265.83;;;4.95;97.89
38612;BME280;24368;52.156;20.788;2022-12-28T23:08:55;100260.98;;;4.97;97.84
38612;BME280;24368;52.156;20.788;2022-12-28T23:13:57;100262.49;;;4.93;98.02
38612;BME280;24368;52.156;20.788;2022-12-28T23:19:19;100251.28;;;4.89;98.56
38612;BME280;24368;52.156;20.788;2022-12-28T23:24:38;100255.57;;;4.94;98.27
38612;BME280;24368;52.156;20.788;2022-12-28T23:29:58;100257.30;;;5.03;97.17
38612;BME280;24368;52.156;20.788;2022-12-28T23:34:59;100255.44;;;5.03;97.24
38612;BME280;24368;52.156;20.788;2022-12-28T23:40:00;100260.92;;;5.00;97.52
38612;BME280;24368;52.156;20.788;2022-12-28T23:45:02;100246.04;;;5.00;97.05
38612;BME280;24368;52.156;20.788;2022-12-28T23:50:05;100239.33;;;5.04;96.80
38612;BME280;24368;52.156;20.788;2022-12-28T23:55:07;100229.31;;;5.04;96.58
